sensor_id;sensor_type;location;lat;lon;timestamp;pressure;altitude;pressure_sealevel;temperature;humidity
12215;BME280;6170;42.206;24.142;2023-02-03T00:01:43;99091.13;;;5.05;71.80
12215;BME280;6170;42.206;24.142;2023-02-03T00:04:10;99086.66;;;5.05;70.66
12215;BME280;6170;42.206;24.142;2023-02-03T00:06:37;99135.09;;;5.33;71.07
12215;BME280;6170;42.206;24.142;2023-02-03T00:09:05;99072.53;;;5.05;69.79
12215;BME280;6170;42.206;24.142;2023-02-03T00:11:31;99078.28;;;4.92;69.86
12215;BME280;6170;42.206;24.142;2023-02-03T00:13:58;99079.16;;;5.01;69.21
12215;BME280;6170;42.206;24.142;2023-02-03T00:16:26;99076.41;;;5.18;69.38
12215;BME280;6170;42.206;24.142;2023-02-03T00:18:53;99084.31;;;5.02;70.05
12215;BME280;6170;42.206;24.142;2023-02-03T00:21:20;99102.06;;;5.02;70.36
12215;BME280;6170;42.206;24.142;2023-02-03T00:23:47;99083.97;;;4.37;70.80
12215;BME280;6170;42.206;24.142;2023-02-03T00:26:15;99094.78;;;4.70;69.68
12215;BME280;6170;42.206;24.142;2023-02-03T00:28:42;99116.41;;;4.83;69.46
12215;BME280;6170;42.206;24.142;2023-02-03T00:31:14;99097.59;;;4.68;69.86
12215;BME280;6170;42.206;24.142;2023-02-03T00:33:43;99118.44;;;4.89;69.25
12215;BME280;6170;42.206;24.142;2023-02-03T00:36:10;99125.53;;;4.80;69.35
12215;BME280;6170;42.206;24.142;2023-02-03T00:38:37;99114.22;;;4.78;70.00
12215;BME280;6170;42.206;24.142;2023-02-03T00:41:04;99121.06;;;4.81;69.70
12215;BME280;6170;42.206;24.142;2023-02-03T00:43:31;99114.78;;;4.82;70.53
12215;BME280;6170;42.206;24.142;2023-02-03T00:45:58;99128.91;;;4.90;70.19
12215;BME280;6170;42.206;24.142;2023-02-03T00:48:25;99119.22;;;4.73;71.39
12215;BME280;6170;42.206;24.142;2023-02-03T00:50:53;99123.06;;;4.87;70.94
12215;BME280;6170;42.206;24.142;2023-02-03T00:53:20;99159.28;;;5.22;71.14
12215;BME280;6170;42.206;24.142;2023-02-03T00:55:46;99112.78;;;4.84;71.00
12215;BME280;6170;42.206;24.142;2023-02-03T00:58:13;99156.25;;;5.09;71.17
12215;BME280;6170;42.206;24.142;2023-02-03T01:00:40;99120.16;;;4.98;71.27
12215;BME280;6170;42.206;24.142;2023-02-03T01:03:07;99115.06;;;4.79;71.38
12215;BME280;6170;42.206;24.142;2023-02-03T01:05:34;99133.75;;;4.69;72.25
12215;BME280;6170;42.206;24.142;2023-02-03T01:08:03;99128.38;;;4.87;71.47
12215;BME280;6170;42.206;24.142;2023-02-03T01:10:30;99133.34;;;4.82;71.67
12215;BME280;6170;42.206;24.142;2023-02-03T01:12:57;99136.41;;;4.69;72.18
12215;BME280;6170;42.206;24.142;2023-02-03T01:15:23;99148.69;;;4.70;72.27
12215;BME280;6170;42.206;24.142;2023-02-03T01:17:50;99142.88;;;4.67;72.82
12215;BME280;6170;42.206;24.142;2023-02-03T01:20:17;99144.75;;;4.74;73.02
12215;BME280;6170;42.206;24.142;2023-02-03T01:22:45;99146.56;;;4.74;72.99
12215;BME280;6170;42.206;24.142;2023-02-03T01:25:14;99154.09;;;4.61;73.54
12215;BME280;6170;42.206;24.142;2023-02-03T01:27:41;99145.44;;;4.50;73.84
12215;BME280;6170;42.206;24.142;2023-02-03T01:30:09;99145.56;;;4.49;74.63
12215;BME280;6170;42.206;24.142;2023-02-03T01:32:36;99152.38;;;4.51;74.63
12215;BME280;6170;42.206;24.142;2023-02-03T01:35:03;99160.88;;;4.55;75.08
12215;BME280;6170;42.206;24.142;2023-02-03T01:37:30;99151.72;;;4.49;74.93
12215;BME280;6170;42.206;24.142;2023-02-03T01:39:56;99153.63;;;4.39;76.27
12215;BME280;6170;42.206;24.142;2023-02-03T01:42:24;99160.13;;;4.45;75.62
12215;BME280;6170;42.206;24.142;2023-02-03T01:44:51;99159.44;;;4.43;76.53
12215;BME280;6170;42.206;24.142;2023-02-03T01:47:27;99149.91;;;4.50;76.25
12215;BME280;6170;42.206;24.142;2023-02-03T01:49:59;99177.66;;;4.56;76.21
12215;BME280;6170;42.206;24.142;2023-02-03T01:52:27;99204.16;;;4.73;76.34
12215;BME280;6170;42.206;24.142;2023-02-03T01:54:55;99146.88;;;4.45;75.66
12215;BME280;6170;42.206;24.142;2023-02-03T01:57:30;99149.00;;;4.41;76.49
12215;BME280;6170;42.206;24.142;2023-02-03T01:59:59;99162.69;;;4.55;75.95
12215;BME280;6170;42.206;24.142;2023-02-03T02:02:26;99157.03;;;4.49;75.52
12215;BME280;6170;42.206;24.142;2023-02-03T02:04:57;99159.41;;;4.61;75.58
12215;BME280;6170;42.206;24.142;2023-02-03T02:07:28;99161.53;;;4.57;75.36
12215;BME280;6170;42.206;24.142;2023-02-03T02:09:55;99165.25;;;4.64;75.54
12215;BME280;6170;42.206;24.142;2023-02-03T02:12:22;99202.72;;;4.61;75.98
12215;BME280;6170;42.206;24.142;2023-02-03T02:14:51;99184.34;;;4.42;77.05
12215;BME280;6170;42.206;24.142;2023-02-03T02:17:37;99186.97;;;4.42;77.13
12215;BME280;6170;42.206;24.142;2023-02-03T02:20:17;99243.50;;;4.78;77.64
12215;BME280;6170;42.206;24.142;2023-02-03T02:23:00;99190.84;;;4.30;77.87
12215;BME280;6170;42.206;24.142;2023-02-03T02:25:50;99127.44;;;4.01;78.37
12215;BME280;6170;42.206;24.142;2023-02-03T02:28:44;99181.91;;;4.31;78.28
12215;BME280;6170;42.206;24.142;2023-02-03T02:31:49;99197.16;;;4.29;78.64
12215;BME280;6170;42.206;24.142;2023-02-03T02:34:23;99182.22;;;4.10;79.05
12215;BME280;6170;42.206;24.142;2023-02-03T02:37:00;99178.94;;;4.16;78.58
12215;BME280;6170;42.206;24.142;2023-02-03T02:39:37;99187.47;;;4.20;77.51
12215;BME280;6170;42.206;24.142;2023-02-03T02:42:09;99187.13;;;4.23;77.09
12215;BME280;6170;42.206;24.142;2023-02-03T02:44:40;99180.53;;;4.09;76.52
12215;BME280;6170;42.206;24.142;2023-02-03T02:47:15;99184.03;;;3.92;77.39
12215;BME280;6170;42.206;24.142;2023-02-03T02:49:47;99197.59;;;4.06;77.69
12215;BME280;6170;42.206;24.142;2023-02-03T02:52:17;99184.19;;;4.08;77.10
12215;BME280;6170;42.206;24.142;2023-02-03T02:54:50;99177.97;;;3.99;76.86
12215;BME280;6170;42.206;24.142;2023-02-03T02:57:19;99181.06;;;4.13;76.61
12215;BME280;6170;42.206;24.142;2023-02-03T02:59:47;99171.44;;;4.12;76.81
12215;BME280;6170;42.206;24.142;2023-02-03T03:02:16;99189.78;;;4.05;77.33
12215;BME280;6170;42.206;24.142;2023-02-03T03:04:45;99240.66;;;4.36;77.51
12215;BME280;6170;42.206;24.142;2023-02-03T03:07:16;99200.09;;;4.08;77.36
12215;BME280;6170;42.206;24.142;2023-02-03T03:09:46;99181.25;;;4.11;76.79
12215;BME280;6170;42.206;24.142;2023-02-03T03:12:18;99192.19;;;4.34;76.29
12215;BME280;6170;42.206;24.142;2023-02-03T03:14:48;99182.28;;;4.18;76.30
12215;BME280;6170;42.206;24.142;2023-02-03T03:17:22;99183.66;;;4.22;75.97
12215;BME280;6170;42.206;24.142;2023-02-03T03:19:53;99188.63;;;4.25;75.73
12215;BME280;6170;42.206;24.142;2023-02-03T03:22:24;99198.19;;;4.18;76.19
12215;BME280;6170;42.206;24.142;2023-02-03T03:24:59;99183.13;;;4.01;76.67
12215;BME280;6170;42.206;24.142;2023-02-03T03:27:30;99191.47;;;4.06;76.12
12215;BME280;6170;42.206;24.142;2023-02-03T03:30:01;99204.41;;;3.91;76.56
12215;BME280;6170;42.206;24.142;2023-02-03T03:32:30;99239.41;;;4.13;76.31
12215;BME280;6170;42.206;24.142;2023-02-03T03:34:57;99211.53;;;4.08;75.88
12215;BME280;6170;42.206;24.142;2023-02-03T03:37:31;99224.97;;;4.25;75.57
12215;BME280;6170;42.206;24.142;2023-02-03T03:40:01;99218.13;;;4.04;76.37
12215;BME280;6170;42.206;24.142;2023-02-03T03:42:35;99216.91;;;4.17;75.44
12215;BME280;6170;42.206;24.142;2023-02-03T03:45:07;99272.94;;;4.31;75.42
12215;BME280;6170;42.206;24.142;2023-02-03T03:47:41;99248.00;;;4.24;75.14
12215;BME280;6170;42.206;24.142;2023-02-03T03:50:14;99301.91;;;4.42;75.10
12215;BME280;6170;42.206;24.142;2023-02-03T03:52:43;99238.56;;;4.12;74.46
12215;BME280;6170;42.206;24.142;2023-02-03T03:55:13;99212.63;;;4.16;74.17
12215;BME280;6170;42.206;24.142;2023-02-03T03:57:43;99226.22;;;4.38;73.67
12215;BME280;6170;42.206;24.142;2023-02-03T04:00:14;99217.53;;;4.28;73.52
12215;BME280;6170;42.206;24.142;2023-02-03T04:02:46;99214.81;;;4.38;73.05
12215;BME280;6170;42.206;24.142;2023-02-03T04:05:16;99203.06;;;4.23;73.07
12215;BME280;6170;42.206;24.142;2023-02-03T04:07:45;99201.00;;;4.17;73.13
12215;BME280;6170;42.206;24.142;2023-02-03T04:10:17;99206.28;;;4.17;73.11
12215;BME280;6170;42.206;24.142;2023-02-03T04:12:46;99197.66;;;3.97;72.96
12215;BME280;6170;42.206;24.142;2023-02-03T04:15:13;99192.50;;;3.95;72.70
12215;BME280;6170;42.206;24.142;2023-02-03T04:17:40;99198.44;;;3.89;72.01
12215;BME280;6170;42.206;24.142;2023-02-03T04:20:09;99196.06;;;3.86;71.10
12215;BME280;6170;42.206;24.142;2023-02-03T04:22:36;99199.31;;;3.80;71.06
12215;BME280;6170;42.206;24.142;2023-02-03T04:25:03;99189.50;;;3.63;70.69
12215;BME280;6170;42.206;24.142;2023-02-03T04:27:30;99188.47;;;3.74;70.75
12215;BME280;6170;42.206;24.142;2023-02-03T04:29:57;99185.88;;;3.64;70.83
12215;BME280;6170;42.206;24.142;2023-02-03T04:32:24;99244.88;;;3.93;69.24
12215;BME280;6170;42.206;24.142;2023-02-03T04:34:50;99262.97;;;3.98;69.65
12215;BME280;6170;42.206;24.142;2023-02-03T04:37:19;99213.03;;;3.76;68.60
12215;BME280;6170;42.206;24.142;2023-02-03T04:39:48;99229.41;;;3.89;69.48
12215;BME280;6170;42.206;24.142;2023-02-03T04:42:16;99226.88;;;3.87;68.62
12215;BME280;6170;42.206;24.142;2023-02-03T04:44:43;99214.69;;;3.94;67.68
12215;BME280;6170;42.206;24.142;2023-02-03T04:47:10;99230.00;;;4.00;67.43
12215;BME280;6170;42.206;24.142;2023-02-03T04:49:36;99230.53;;;4.04;66.55
12215;BME280;6170;42.206;24.142;2023-02-03T04:52:03;99289.84;;;4.48;66.21
12215;BME280;6170;42.206;24.142;2023-02-03T04:54:32;99286.34;;;4.65;65.35
12215;BME280;6170;42.206;24.142;2023-02-03T04:56:59;99243.81;;;4.04;67.01
12215;BME280;6170;42.206;24.142;2023-02-03T04:59:26;99237.47;;;4.15;66.59
12215;BME280;6170;42.206;24.142;2023-02-03T05:01:53;99247.69;;;4.10;66.70
12215;BME280;6170;42.206;24.142;2023-02-03T05:04:20;99240.25;;;4.13;66.11
12215;BME280;6170;42.206;24.142;2023-02-03T05:06:47;99255.72;;;4.18;66.18
12215;BME280;6170;42.206;24.142;2023-02-03T05:09:14;99258.16;;;4.29;65.87
12215;BME280;6170;42.206;24.142;2023-02-03T05:11:42;99261.09;;;4.26;65.63
12215;BME280;6170;42.206;24.142;2023-02-03T05:14:09;99267.53;;;4.23;65.27
12215;BME280;6170;42.206;24.142;2023-02-03T05:16:36;99245.63;;;4.03;65.20
12215;BME280;6170;42.206;24.142;2023-02-03T05:19:03;99285.66;;;4.28;65.60
12215;BME280;6170;42.206;24.142;2023-02-03T05:21:29;99266.56;;;4.24;64.80
12215;BME280;6170;42.206;24.142;2023-02-03T05:23:56;99268.59;;;4.13;65.35
12215;BME280;6170;42.206;24.142;2023-02-03T05:26:24;99324.31;;;4.30;66.28
12215;BME280;6170;42.206;24.142;2023-02-03T05:28:52;99277.50;;;4.12;65.76
12215;BME280;6170;42.206;24.142;2023-02-03T05:31:19;99277.16;;;4.06;65.30
12215;BME280;6170;42.206;24.142;2023-02-03T05:33:46;99299.97;;;4.17;64.83
12215;BME280;6170;42.206;24.142;2023-02-03T05:36:13;99296.69;;;4.05;64.70
12215;BME280;6170;42.206;24.142;2023-02-03T05:38:39;99303.88;;;4.40;64.60
12215;BME280;6170;42.206;24.142;2023-02-03T05:41:08;99326.88;;;4.22;64.98
12215;BME280;6170;42.206;24.142;2023-02-03T05:43:53;99367.19;;;4.53;64.92
12215;BME280;6170;42.206;24.142;2023-02-03T05:46:20;99320.66;;;4.14;65.41
12215;BME280;6170;42.206;24.142;2023-02-03T05:48:47;99335.59;;;4.15;65.07
12215;BME280;6170;42.206;24.142;2023-02-03T05:51:14;99334.00;;;4.22;65.13
12215;BME280;6170;42.206;24.142;2023-02-03T05:53:40;99341.72;;;4.42;64.52
12215;BME280;6170;42.206;24.142;2023-02-03T05:56:07;99330.44;;;4.31;65.18
12215;BME280;6170;42.206;24.142;2023-02-03T05:58:34;99329.47;;;4.32;65.21
12215;BME280;6170;42.206;24.142;2023-02-03T06:01:02;99334.50;;;4.52;63.89
12215;BME280;6170;42.206;24.142;2023-02-03T06:03:29;99338.75;;;4.63;64.08
12215;BME280;6170;42.206;24.142;2023-02-03T06:05:56;99346.56;;;4.82;64.13
12215;BME280;6170;42.206;24.142;2023-02-03T06:08:23;99384.19;;;5.31;63.81
12215;BME280;6170;42.206;24.142;2023-02-03T06:10:56;99343.16;;;4.90;63.44
12215;BME280;6170;42.206;24.142;2023-02-03T06:13:23;99335.78;;;5.02;63.28
12215;BME280;6170;42.206;24.142;2023-02-03T06:15:50;99331.59;;;5.94;61.80
12215;BME280;6170;42.206;24.142;2023-02-03T06:18:18;99333.94;;;6.47;59.29
12215;BME280;6170;42.206;24.142;2023-02-03T06:20:45;99349.50;;;7.08;57.81
12215;BME280;6170;42.206;24.142;2023-02-03T06:23:12;99342.16;;;7.35;56.78
12215;BME280;6170;42.206;24.142;2023-02-03T06:25:38;99341.00;;;7.29;57.02
12215;BME280;6170;42.206;24.142;2023-02-03T06:28:05;99360.03;;;7.97;55.34
12215;BME280;6170;42.206;24.142;2023-02-03T06:30:32;99356.31;;;8.84;54.44
12215;BME280;6170;42.206;24.142;2023-02-03T06:32:58;99360.91;;;8.68;53.60
12215;BME280;6170;42.206;24.142;2023-02-03T06:35:27;99352.47;;;7.46;55.23
12215;BME280;6170;42.206;24.142;2023-02-03T06:37:53;99358.97;;;6.28;57.78
12215;BME280;6170;42.206;24.142;2023-02-03T06:40:20;99362.34;;;6.30;58.60
12215;BME280;6170;42.206;24.142;2023-02-03T06:42:47;99371.38;;;6.04;58.76
12215;BME280;6170;42.206;24.142;2023-02-03T06:45:15;99354.41;;;6.05;59.29
12215;BME280;6170;42.206;24.142;2023-02-03T06:47:42;99369.28;;;5.90;59.50
12215;BME280;6170;42.206;24.142;2023-02-03T06:50:13;99379.88;;;5.56;60.96
12215;BME280;6170;42.206;24.142;2023-02-03T06:52:41;99364.84;;;5.72;60.53
12215;BME280;6170;42.206;24.142;2023-02-03T06:55:09;99399.47;;;5.55;60.82
12215;BME280;6170;42.206;24.142;2023-02-03T06:57:42;99405.28;;;5.58;61.43
12215;BME280;6170;42.206;24.142;2023-02-03T07:00:09;99462.13;;;6.01;61.28
12215;BME280;6170;42.206;24.142;2023-02-03T07:02:36;99408.97;;;6.51;59.75
12215;BME280;6170;42.206;24.142;2023-02-03T07:05:03;99408.97;;;7.25;57.24
12215;BME280;6170;42.206;24.142;2023-02-03T07:07:30;99414.41;;;8.04;55.96
12215;BME280;6170;42.206;24.142;2023-02-03T07:09:59;99416.22;;;8.90;53.69
12215;BME280;6170;42.206;24.142;2023-02-03T07:12:26;99419.09;;;10.09;51.07
12215;BME280;6170;42.206;24.142;2023-02-03T07:14:54;99414.09;;;9.08;52.30
12215;BME280;6170;42.206;24.142;2023-02-03T07:17:21;99454.97;;;7.92;54.94
12215;BME280;6170;42.206;24.142;2023-02-03T07:19:48;99421.75;;;6.97;56.43
12215;BME280;6170;42.206;24.142;2023-02-03T07:22:14;99418.34;;;6.63;57.38
12215;BME280;6170;42.206;24.142;2023-02-03T07:24:41;99413.50;;;6.50;57.71
12215;BME280;6170;42.206;24.142;2023-02-03T07:27:09;99420.34;;;6.19;59.16
12215;BME280;6170;42.206;24.142;2023-02-03T07:29:36;99419.94;;;6.40;59.01
12215;BME280;6170;42.206;24.142;2023-02-03T07:32:03;99424.25;;;6.07;59.80
12215;BME280;6170;42.206;24.142;2023-02-03T07:34:30;99423.97;;;6.18;59.18
12215;BME280;6170;42.206;24.142;2023-02-03T07:36:57;99419.88;;;6.23;58.55
12215;BME280;6170;42.206;24.142;2023-02-03T07:39:23;99426.56;;;6.36;58.23
12215;BME280;6170;42.206;24.142;2023-02-03T07:41:50;99425.59;;;6.45;58.95
12215;BME280;6170;42.206;24.142;2023-02-03T07:44:18;99417.88;;;6.67;58.92
12215;BME280;6170;42.206;24.142;2023-02-03T07:46:45;99420.63;;;7.08;57.71
12215;BME280;6170;42.206;24.142;2023-02-03T07:49:12;99426.97;;;7.23;56.73
12215;BME280;6170;42.206;24.142;2023-02-03T07:51:39;99413.13;;;7.68;55.82
12215;BME280;6170;42.206;24.142;2023-02-03T07:54:06;99427.66;;;8.37;55.24
12215;BME280;6170;42.206;24.142;2023-02-03T07:56:33;99429.38;;;8.30;54.48
12215;BME280;6170;42.206;24.142;2023-02-03T07:59:00;99411.50;;;8.30;53.97
12215;BME280;6170;42.206;24.142;2023-02-03T08:01:28;99437.59;;;8.67;53.35
12215;BME280;6170;42.206;24.142;2023-02-03T08:03:55;99441.03;;;8.76;52.59
12215;BME280;6170;42.206;24.142;2023-02-03T08:06:22;99429.41;;;8.13;53.33
12215;BME280;6170;42.206;24.142;2023-02-03T08:08:49;99434.22;;;8.10;53.25
12215;BME280;6170;42.206;24.142;2023-02-03T08:11:16;99485.16;;;8.72;53.03
12215;BME280;6170;42.206;24.142;2023-02-03T08:13:42;99445.06;;;8.17;52.33
12215;BME280;6170;42.206;24.142;2023-02-03T08:16:09;99446.41;;;8.12;53.13
12215;BME280;6170;42.206;24.142;2023-02-03T08:18:37;99452.81;;;8.50;52.55
12215;BME280;6170;42.206;24.142;2023-02-03T08:21:04;99440.88;;;8.22;52.41
12215;BME280;6170;42.206;24.142;2023-02-03T08:23:31;99439.84;;;8.23;51.59
12215;BME280;6170;42.206;24.142;2023-02-03T08:25:58;99430.81;;;8.48;51.90
12215;BME280;6170;42.206;24.142;2023-02-03T08:28:24;99484.81;;;9.06;51.41
12215;BME280;6170;42.206;24.142;2023-02-03T08:30:51;99445.72;;;8.74;51.46
12215;BME280;6170;42.206;24.142;2023-02-03T08:33:18;99448.06;;;8.69;51.63
12215;BME280;6170;42.206;24.142;2023-02-03T08:35:48;99453.09;;;9.25;51.30
12215;BME280;6170;42.206;24.142;2023-02-03T08:38:15;99443.59;;;9.23;50.26
12215;BME280;6170;42.206;24.142;2023-02-03T08:40:42;99481.75;;;9.39;49.86
12215;BME280;6170;42.206;24.142;2023-02-03T08:43:09;99452.63;;;9.22;50.93
12215;BME280;6170;42.206;24.142;2023-02-03T08:45:35;99440.16;;;9.14;51.08
12215;BME280;6170;42.206;24.142;2023-02-03T08:48:02;99452.25;;;9.47;50.63
12215;BME280;6170;42.206;24.142;2023-02-03T08:50:29;99456.97;;;9.83;49.01
12215;BME280;6170;42.206;24.142;2023-02-03T08:52:57;99456.03;;;10.13;50.58
12215;BME280;6170;42.206;24.142;2023-02-03T08:55:24;99468.56;;;9.98;49.40
12215;BME280;6170;42.206;24.142;2023-02-03T08:57:51;99463.47;;;8.97;50.05
12215;BME280;6170;42.206;24.142;2023-02-03T09:00:19;99478.25;;;8.77;49.82
12215;BME280;6170;42.206;24.142;2023-02-03T09:02:45;99464.38;;;8.43;50.43
12215;BME280;6170;42.206;24.142;2023-02-03T09:05:12;99475.19;;;8.57;52.56
12215;BME280;6170;42.206;24.142;2023-02-03T09:07:42;99472.59;;;8.72;50.64
12215;BME280;6170;42.206;24.142;2023-02-03T09:10:10;99474.09;;;8.36;51.18
12215;BME280;6170;42.206;24.142;2023-02-03T09:12:37;99462.56;;;8.35;51.84
12215;BME280;6170;42.206;24.142;2023-02-03T09:15:04;99472.41;;;8.27;51.59
12215;BME280;6170;42.206;24.142;2023-02-03T09:17:31;99471.59;;;8.18;51.60
12215;BME280;6170;42.206;24.142;2023-02-03T09:19:58;99474.41;;;8.33;50.73
12215;BME280;6170;42.206;24.142;2023-02-03T09:22:24;99467.22;;;8.33;50.74
12215;BME280;6170;42.206;24.142;2023-02-03T09:24:51;99465.44;;;8.09;52.89
12215;BME280;6170;42.206;24.142;2023-02-03T09:27:19;99475.47;;;7.91;51.37
12215;BME280;6170;42.206;24.142;2023-02-03T09:29:46;99472.81;;;7.91;51.22
12215;BME280;6170;42.206;24.142;2023-02-03T09:32:13;99471.16;;;7.74;52.09
12215;BME280;6170;42.206;24.142;2023-02-03T09:34:39;99476.66;;;7.64;51.39
12215;BME280;6170;42.206;24.142;2023-02-03T09:37:06;99477.28;;;7.75;51.77
12215;BME280;6170;42.206;24.142;2023-02-03T09:39:33;99475.13;;;7.70;51.26
12215;BME280;6170;42.206;24.142;2023-02-03T09:42:10;99483.13;;;7.54;51.85
12215;BME280;6170;42.206;24.142;2023-02-03T09:44:49;99492.81;;;7.63;52.31
12215;BME280;6170;42.206;24.142;2023-02-03T09:47:22;99483.63;;;7.41;51.84
12215;BME280;6170;42.206;24.142;2023-02-03T09:49:51;99489.78;;;7.42;51.80
12215;BME280;6170;42.206;24.142;2023-02-03T09:52:20;99471.44;;;7.31;51.55
12215;BME280;6170;42.206;24.142;2023-02-03T09:54:53;99474.78;;;7.57;51.45
12215;BME280;6170;42.206;24.142;2023-02-03T09:57:23;99450.78;;;7.49;52.11
12215;BME280;6170;42.206;24.142;2023-02-03T09:59:53;99457.66;;;7.51;51.61
12215;BME280;6170;42.206;24.142;2023-02-03T10:02:34;99461.63;;;7.63;51.27
12215;BME280;6170;42.206;24.142;2023-02-03T10:05:12;99463.59;;;8.02;50.65
12215;BME280;6170;42.206;24.142;2023-02-03T10:07:47;99448.78;;;7.91;50.22
12215;BME280;6170;42.206;24.142;2023-02-03T10:10:27;99448.41;;;8.02;50.75
12215;BME280;6170;42.206;24.142;2023-02-03T10:13:12;99438.41;;;8.04;49.03
12215;BME280;6170;42.206;24.142;2023-02-03T10:16:12;99434.88;;;8.36;48.93
12215;BME280;6170;42.206;24.142;2023-02-03T10:18:45;99443.84;;;8.43;48.83
12215;BME280;6170;42.206;24.142;2023-02-03T10:21:21;99431.13;;;9.38;50.16
12215;BME280;6170;42.206;24.142;2023-02-03T10:23:51;99432.47;;;9.94;46.41
12215;BME280;6170;42.206;24.142;2023-02-03T10:26:21;99450.00;;;9.59;47.28
12215;BME280;6170;42.206;24.142;2023-02-03T10:28:53;99427.81;;;8.82;47.48
12215;BME280;6170;42.206;24.142;2023-02-03T10:31:23;99428.16;;;9.10;48.23
12215;BME280;6170;42.206;24.142;2023-02-03T10:33:57;99429.75;;;9.19;47.58
12215;BME280;6170;42.206;24.142;2023-02-03T10:36:32;99424.09;;;9.37;48.03
12215;BME280;6170;42.206;24.142;2023-02-03T10:39:16;99425.84;;;8.99;48.04
12215;BME280;6170;42.206;24.142;2023-02-03T10:41:45;99424.22;;;9.21;48.27
12215;BME280;6170;42.206;24.142;2023-02-03T10:44:13;99425.78;;;9.15;47.63
12215;BME280;6170;42.206;24.142;2023-02-03T10:46:43;99429.03;;;8.72;46.97
12215;BME280;6170;42.206;24.142;2023-02-03T10:49:11;99431.66;;;8.80;48.22
12215;BME280;6170;42.206;24.142;2023-02-03T10:51:42;99420.00;;;8.73;47.96
12215;BME280;6170;42.206;24.142;2023-02-03T10:54:26;99416.38;;;8.66;47.87
12215;BME280;6170;42.206;24.142;2023-02-03T10:56:54;99461.19;;;8.86;48.30
12215;BME280;6170;42.206;24.142;2023-02-03T10:59:27;99414.31;;;9.67;48.14
12215;BME280;6170;42.206;24.142;2023-02-03T11:01:56;99409.19;;;9.42;46.87
12215;BME280;6170;42.206;24.142;2023-02-03T11:04:26;99396.25;;;10.35;47.44
12215;BME280;6170;42.206;24.142;2023-02-03T11:06:55;99420.13;;;10.22;46.98
12215;BME280;6170;42.206;24.142;2023-02-03T11:09:29;99379.69;;;10.32;45.60
12215;BME280;6170;42.206;24.142;2023-02-03T11:12:05;99383.47;;;10.88;45.56
12215;BME280;6170;42.206;24.142;2023-02-03T11:14:35;99371.19;;;11.15;44.60
12215;BME280;6170;42.206;24.142;2023-02-03T11:17:07;99375.13;;;11.19;46.22
12215;BME280;6170;42.206;24.142;2023-02-03T11:19:36;99382.38;;;11.67;44.28
12215;BME280;6170;42.206;24.142;2023-02-03T11:22:04;99383.63;;;11.22;44.12
12215;BME280;6170;42.206;24.142;2023-02-03T11:24:33;99374.31;;;11.18;43.86
12215;BME280;6170;42.206;24.142;2023-02-03T11:27:04;99383.56;;;11.37;43.75
12215;BME280;6170;42.206;24.142;2023-02-03T11:29:33;99425.41;;;10.60;43.56
12215;BME280;6170;42.206;24.142;2023-02-03T11:32:04;99428.00;;;10.39;45.54
12215;BME280;6170;42.206;24.142;2023-02-03T11:34:34;99375.47;;;10.73;44.67
12215;BME280;6170;42.206;24.142;2023-02-03T11:37:26;99407.94;;;11.63;43.19
12215;BME280;6170;42.206;24.142;2023-02-03T11:40:13;99359.34;;;11.09;45.31
12215;BME280;6170;42.206;24.142;2023-02-03T11:42:59;99393.53;;;11.92;43.53
12215;BME280;6170;42.206;24.142;2023-02-03T11:45:29;99349.09;;;11.68;42.56
12215;BME280;6170;42.206;24.142;2023-02-03T11:48:00;99391.63;;;11.37;43.39
12215;BME280;6170;42.206;24.142;2023-02-03T11:50:35;99383.69;;;12.06;43.69
12215;BME280;6170;42.206;24.142;2023-02-03T11:53:24;99343.44;;;11.50;43.11
12215;BME280;6170;42.206;24.142;2023-02-03T11:56:03;99331.84;;;11.50;43.79
12215;BME280;6170;42.206;24.142;2023-02-03T12:01:52;99361.97;;;11.24;44.26
12215;BME280;6170;42.206;24.142;2023-02-03T12:04:34;99315.22;;;10.69;44.61
12215;BME280;6170;42.206;24.142;2023-02-03T12:10:14;99323.75;;;10.58;44.19
12215;BME280;6170;42.206;24.142;2023-02-03T12:12:51;99303.78;;;9.81;44.07
12215;BME280;6170;42.206;24.142;2023-02-03T12:15:31;99293.06;;;9.37;45.29
12215;BME280;6170;42.206;24.142;2023-02-03T12:18:12;99316.91;;;9.24;46.25
12215;BME280;6170;42.206;24.142;2023-02-03T12:21:02;99314.78;;;9.34;45.81
12215;BME280;6170;42.206;24.142;2023-02-03T12:23:41;99365.81;;;9.10;46.73
12215;BME280;6170;42.206;24.142;2023-02-03T12:26:17;99330.34;;;8.70;47.38
12215;BME280;6170;42.206;24.142;2023-02-03T12:28:52;99316.03;;;8.40;48.07
12215;BME280;6170;42.206;24.142;2023-02-03T12:31:26;99362.34;;;8.78;47.64
12215;BME280;6170;42.206;24.142;2023-02-03T12:34:02;99305.94;;;8.11;47.36
12215;BME280;6170;42.206;24.142;2023-02-03T12:36:36;99352.69;;;8.46;48.66
12215;BME280;6170;42.206;24.142;2023-02-03T12:39:11;99307.19;;;8.01;47.43
12215;BME280;6170;42.206;24.142;2023-02-03T12:41:44;99287.69;;;8.31;47.42
12215;BME280;6170;42.206;24.142;2023-02-03T12:44:17;99292.22;;;8.31;47.25
12215;BME280;6170;42.206;24.142;2023-02-03T12:46:48;99300.06;;;8.55;46.89
12215;BME280;6170;42.206;24.142;2023-02-03T12:49:27;99346.47;;;8.85;47.55
12215;BME280;6170;42.206;24.142;2023-02-03T12:51:58;99295.78;;;8.69;46.17
12215;BME280;6170;42.206;24.142;2023-02-03T12:54:34;99346.09;;;8.88;45.91
12215;BME280;6170;42.206;24.142;2023-02-03T12:57:11;99328.88;;;8.90;45.26
12215;BME280;6170;42.206;24.142;2023-02-03T12:59:40;99348.78;;;9.11;45.61
12215;BME280;6170;42.206;24.142;2023-02-03T13:02:14;99308.81;;;8.72;46.25
12215;BME280;6170;42.206;24.142;2023-02-03T13:04:47;99354.13;;;8.88;45.87
12215;BME280;6170;42.206;24.142;2023-02-03T13:07:20;99302.22;;;8.82;45.77
12215;BME280;6170;42.206;24.142;2023-02-03T13:09:56;99329.63;;;9.22;44.68
12215;BME280;6170;42.206;24.142;2023-02-03T13:12:28;99296.03;;;8.59;44.99
12215;BME280;6170;42.206;24.142;2023-02-03T13:14:59;99337.78;;;9.06;44.85
12215;BME280;6170;42.206;24.142;2023-02-03T13:17:41;99286.22;;;8.51;45.14
12215;BME280;6170;42.206;24.142;2023-02-03T13:20:15;99329.38;;;8.63;46.12
12215;BME280;6170;42.206;24.142;2023-02-03T13:22:44;99279.91;;;8.13;45.61
12215;BME280;6170;42.206;24.142;2023-02-03T13:25:18;99274.28;;;8.08;46.49
12215;BME280;6170;42.206;24.142;2023-02-03T13:27:54;99320.84;;;8.45;46.22
12215;BME280;6170;42.206;24.142;2023-02-03T13:30:55;99261.19;;;8.22;46.36
12215;BME280;6170;42.206;24.142;2023-02-03T13:39:39;99266.56;;;8.13;43.86